createdAt,value
2018-04-13T00:00:49.577Z,980.25
2018-04-13T00:01:49.561Z,980.19
2018-04-13T00:02:49.538Z,980.24
2018-04-13T00:03:49.538Z,980.24
2018-04-13T00:04:49.518Z,980.25
2018-04-13T00:05:49.503Z,980.25
2018-04-13T00:06:49.483Z,980.22
2018-04-13T00:07:49.490Z,980.25
2018-04-13T00:08:49.445Z,980.27
2018-04-13T00:09:49.429Z,980.26
2018-04-13T00:10:49.442Z,980.25
2018-04-13T00:11:49.422Z,980.22
2018-04-13T00:12:49.387Z,980.21
2018-04-13T00:13:49.368Z,980.28
2018-04-13T00:14:49.362Z,980.22
2018-04-13T00:15:49.342Z,980.25
2018-04-13T00:16:49.319Z,980.24
2018-04-13T00:17:49.307Z,980.21
2018-04-13T00:18:49.301Z,980.27
2018-04-13T00:19:49.276Z,980.24
2018-04-13T00:20:49.264Z,980.18
2018-04-13T00:21:49.247Z,980.22
2018-04-13T00:22:49.225Z,980.22
2018-04-13T00:23:49.211Z,980.24
2018-04-13T00:24:49.202Z,980.23
2018-04-13T00:25:49.194Z,980.24
2018-04-13T00:26:49.164Z,980.26
2018-04-13T00:27:49.160Z,980.22
2018-04-13T00:28:49.130Z,980.21
2018-04-13T00:29:49.120Z,980.22
2018-04-13T00:30:49.102Z,980.18
2018-04-13T00:31:49.085Z,980.22
2018-04-13T00:32:49.064Z,980.22
2018-04-13T00:33:49.082Z,980.22
2018-04-13T00:34:49.047Z,980.19
2018-04-13T00:35:49.029Z,980.18
2018-04-13T00:36:49.025Z,980.22
2018-04-13T00:37:49.006Z,980.20
2018-04-13T00:38:48.990Z,980.19
2018-04-13T00:39:48.987Z,980.21
2018-04-13T00:40:48.943Z,980.17
2018-04-13T00:41:48.924Z,980.19
2018-04-13T00:42:48.933Z,980.20
2018-04-13T00:43:48.907Z,980.16
2018-04-13T00:44:48.900Z,980.16
2018-04-13T00:45:48.865Z,980.20
2018-04-13T00:46:48.840Z,980.20
2018-04-13T00:47:58.612Z,980.22
2018-04-13T00:49:42.509Z,980.25
2018-04-13T00:50:42.320Z,980.25
2018-04-13T00:51:42.188Z,980.23
2018-04-13T00:52:42.178Z,980.23
2018-04-13T00:53:42.447Z,980.19
2018-04-13T00:54:42.479Z,980.24
2018-04-13T00:55:42.083Z,980.25
2018-04-13T00:56:42.056Z,980.26
2018-04-13T00:57:42.047Z,980.24
2018-04-13T00:58:42.081Z,980.26
2018-04-13T00:59:42.025Z,980.26
2018-04-13T01:00:41.999Z,980.28
2018-04-13T01:01:41.990Z,980.31
2018-04-13T01:02:41.973Z,980.29
2018-04-13T01:03:41.976Z,980.30
2018-04-13T01:04:41.938Z,980.31
2018-04-13T01:05:41.917Z,980.30
2018-04-13T01:06:41.904Z,980.35
2018-04-13T01:07:41.888Z,980.32
2018-04-13T01:08:41.889Z,980.34
2018-04-13T01:09:41.866Z,980.34
2018-04-13T01:10:41.851Z,980.35
2018-04-13T01:11:41.824Z,980.35
2018-04-13T01:12:41.809Z,980.37
2018-04-13T01:13:41.786Z,980.29
2018-04-13T01:14:41.789Z,980.35
2018-04-13T01:15:41.755Z,980.34
2018-04-13T01:16:41.739Z,980.34
2018-04-13T01:17:41.720Z,980.31
2018-04-13T01:18:41.700Z,980.32
2018-04-13T01:19:41.700Z,980.32
2018-04-13T01:20:41.697Z,980.32
2018-04-13T01:21:41.662Z,980.36
2018-04-13T01:22:41.649Z,980.36
2018-04-13T01:23:41.636Z,980.35
2018-04-13T01:24:41.614Z,980.40
2018-04-13T01:25:41.620Z,980.37
2018-04-13T01:26:41.601Z,980.37
2018-04-13T01:27:41.563Z,980.42
2018-04-13T01:28:41.589Z,980.40
2018-04-13T01:29:41.537Z,980.32
2018-04-13T01:30:41.526Z,980.40
2018-04-13T01:31:41.515Z,980.34
2018-04-13T01:32:41.490Z,980.33
2018-04-13T01:33:41.477Z,980.31
2018-04-13T01:34:41.471Z,980.29
2018-04-13T01:35:41.451Z,980.29
2018-04-13T01:36:41.439Z,980.30
2018-04-13T01:37:41.408Z,980.32
2018-04-13T01:38:41.429Z,980.31
2018-04-13T01:39:41.384Z,980.28
2018-04-13T01:40:41.361Z,980.29
2018-04-13T01:41:41.350Z,980.29
2018-04-13T01:42:41.353Z,980.30
2018-04-13T01:43:41.317Z,980.31
2018-04-13T01:44:41.302Z,980.27
2018-04-13T01:45:41.282Z,980.29
2018-04-13T01:46:41.263Z,980.28
2018-04-13T01:47:41.243Z,980.29
2018-04-13T01:48:41.234Z,980.29
2018-04-13T01:49:41.216Z,980.29
2018-04-13T01:50:41.202Z,980.28
2018-04-13T01:51:41.221Z,980.31
2018-04-13T01:52:41.192Z,980.31
2018-04-13T01:53:41.149Z,980.33
2018-04-13T01:54:41.142Z,980.32
2018-04-13T01:55:41.127Z,980.28
2018-04-13T01:56:41.114Z,980.30
2018-04-13T01:57:41.100Z,980.27
2018-04-13T01:58:41.065Z,980.26
2018-04-13T01:59:41.088Z,980.27
2018-04-13T02:00:41.044Z,980.27
2018-04-13T02:01:41.018Z,980.26
2018-04-13T02:02:41.006Z,980.25
2018-04-13T02:03:41.012Z,980.23
2018-04-13T02:04:40.995Z,980.25
2018-04-13T02:05:40.989Z,980.26
2018-04-13T02:06:40.951Z,980.25
2018-04-13T02:07:40.929Z,980.25
2018-04-13T02:08:40.907Z,980.26
2018-04-13T02:09:40.896Z,980.25
2018-04-13T02:10:40.875Z,980.28
2018-04-13T02:11:40.862Z,980.28
2018-04-13T02:12:40.862Z,980.28
2018-04-13T02:13:40.836Z,980.28
2018-04-13T02:14:40.824Z,980.25
2018-04-13T02:15:40.801Z,980.27
2018-04-13T02:16:40.789Z,980.30
2018-04-13T02:17:40.763Z,980.29
2018-04-13T02:18:40.755Z,980.33
2018-04-13T02:19:40.733Z,980.32
2018-04-13T02:20:40.729Z,980.33
2018-04-13T02:21:40.707Z,980.31
2018-04-13T02:22:40.688Z,980.34
2018-04-13T02:23:40.691Z,980.33
2018-04-13T02:24:40.654Z,980.30
2018-04-13T02:25:40.666Z,980.34
2018-04-13T02:26:40.621Z,980.28
2018-04-13T02:27:40.605Z,980.31
2018-04-13T02:28:40.585Z,980.32
2018-04-13T02:29:40.612Z,980.32
2018-04-13T02:30:40.552Z,980.32
2018-04-13T02:31:40.539Z,980.34
2018-04-13T02:32:40.526Z,980.35
2018-04-13T02:33:40.518Z,980.30
2018-04-13T02:34:40.558Z,980.34
2018-04-13T02:35:40.485Z,980.33
2018-04-13T02:36:40.462Z,980.36
2018-04-13T02:37:40.478Z,980.33
2018-04-13T02:38:40.434Z,980.33
2018-04-13T02:39:40.437Z,980.33
2018-04-13T02:40:40.399Z,980.37
2018-04-13T02:41:40.381Z,980.35
2018-04-13T02:42:40.379Z,980.38
2018-04-13T02:43:40.363Z,980.36
2018-04-13T02:44:40.330Z,980.37
2018-04-13T02:45:40.312Z,980.36
2018-04-13T02:46:40.302Z,980.37
2018-04-13T02:47:40.296Z,980.37
2018-04-13T02:48:40.263Z,980.36
2018-04-13T02:49:40.250Z,980.38
2018-04-13T02:50:40.231Z,980.37
2018-04-13T02:51:40.212Z,980.38
2018-04-13T02:52:40.228Z,980.41
2018-04-13T02:53:40.209Z,980.40
2018-04-13T02:54:40.173Z,980.38
2018-04-13T02:55:40.154Z,980.37
2018-04-13T02:56:40.133Z,980.38
2018-04-13T02:57:40.118Z,980.38
2018-04-13T02:58:40.114Z,980.40
2018-04-13T02:59:40.079Z,980.42
2018-04-13T03:00:40.104Z,980.39
2018-04-13T03:01:40.050Z,980.38
2018-04-13T03:02:40.043Z,980.39
2018-04-13T03:03:40.027Z,980.36
2018-04-13T03:04:40.008Z,980.37
2018-04-13T03:05:40.009Z,980.38
2018-04-13T03:06:39.966Z,980.36
2018-04-13T03:07:40.020Z,980.37
2018-04-13T03:08:39.948Z,980.43
2018-04-13T03:09:39.922Z,980.44
2018-04-13T03:10:39.902Z,980.40
2018-04-13T03:11:39.900Z,980.40
2018-04-13T03:12:39.880Z,980.43
2018-04-13T03:13:39.855Z,980.42
2018-04-13T03:14:39.854Z,980.39
2018-04-13T03:15:39.826Z,980.40
2018-04-13T03:16:39.844Z,980.38
2018-04-13T03:17:39.794Z,980.39
2018-04-13T03:18:39.778Z,980.37
2018-04-13T03:19:39.797Z,980.37
2018-04-13T03:20:39.756Z,980.37
2018-04-13T03:21:39.749Z,980.34
2018-04-13T03:22:39.736Z,980.34
2018-04-13T03:23:39.702Z,980.30
2018-04-13T03:24:39.710Z,980.32
2018-04-13T03:25:39.689Z,980.34
2018-04-13T03:26:39.644Z,980.34
2018-04-13T03:27:39.653Z,980.35
2018-04-13T03:28:39.611Z,980.38
2018-04-13T03:29:39.599Z,980.37
2018-04-13T03:30:39.583Z,980.40
2018-04-13T03:31:39.580Z,980.39
2018-04-13T03:32:39.544Z,980.43
2018-04-13T03:33:39.542Z,980.42
2018-04-13T03:34:39.516Z,980.41
2018-04-13T03:35:39.501Z,980.40
2018-04-13T03:36:39.485Z,980.43
2018-04-13T03:37:39.468Z,980.43
2018-04-13T03:38:39.458Z,980.42
2018-04-13T03:39:39.449Z,980.45
2018-04-13T03:40:39.442Z,980.44
2018-04-13T03:41:39.397Z,980.44
2018-04-13T03:42:39.394Z,980.42
2018-04-13T03:43:39.398Z,980.43
2018-04-13T03:44:39.353Z,980.46
2018-04-13T03:45:39.338Z,980.47
2018-04-13T03:46:39.348Z,980.46
2018-04-13T03:47:39.322Z,980.49
2018-04-13T03:48:39.297Z,980.50
2018-04-13T03:49:39.271Z,980.50
2018-04-13T03:50:39.258Z,980.54
2018-04-13T03:51:39.239Z,980.50
2018-04-13T03:52:39.233Z,980.53
2018-04-13T03:53:39.219Z,980.52
2018-04-13T03:54:39.185Z,980.51
2018-04-13T03:55:39.198Z,980.51
2018-04-13T03:56:39.158Z,980.53
2018-04-13T03:57:39.171Z,980.50
2018-04-13T03:58:39.120Z,980.48
2018-04-13T03:59:39.116Z,980.48
2018-04-13T04:00:39.108Z,980.48
2018-04-13T04:01:39.081Z,980.49
2018-04-13T04:02:39.053Z,980.47
2018-04-13T04:03:39.060Z,980.46
2018-04-13T04:04:39.031Z,980.47
2018-04-13T04:05:39.012Z,980.47
2018-04-13T04:06:39.006Z,980.47
2018-04-13T04:07:38.983Z,980.48
2018-04-13T04:08:38.970Z,980.47
2018-04-13T04:09:38.941Z,980.48
2018-04-13T04:10:38.941Z,980.49
2018-04-13T04:11:38.922Z,980.48
2018-04-13T04:12:38.899Z,980.48
2018-04-13T04:13:38.908Z,980.50
2018-04-13T04:14:38.875Z,980.52
2018-04-13T04:15:38.874Z,980.56
2018-04-13T04:16:38.823Z,980.58
2018-04-13T04:17:38.820Z,980.62
2018-04-13T04:18:38.791Z,980.62
2018-04-13T04:19:38.797Z,980.66
2018-04-13T04:20:38.776Z,980.68
2018-04-13T04:21:38.751Z,980.71
2018-04-13T04:22:38.745Z,980.70
2018-04-13T04:23:38.715Z,980.74
2018-04-13T04:24:38.712Z,980.73
2018-04-13T04:25:38.709Z,980.74
2018-04-13T04:26:38.690Z,980.72
2018-04-13T04:27:38.654Z,980.70
2018-04-13T04:28:47.664Z,980.69
2018-04-13T04:30:41.417Z,980.77
2018-04-13T04:31:32.022Z,980.81
2018-04-13T04:32:32.299Z,980.79
2018-04-13T04:33:32.248Z,980.83
2018-04-13T04:34:32.343Z,980.85
2018-04-13T04:35:40.831Z,980.90
2018-04-13T04:37:25.645Z,980.92
2018-04-13T04:39:46.594Z,980.94
2018-04-13T04:40:46.540Z,981.01
2018-04-13T04:41:46.565Z,981.01
2018-04-13T04:42:46.506Z,981.05
2018-04-13T04:43:46.633Z,981.01
2018-04-13T04:44:46.495Z,981.02
2018-04-13T04:45:46.520Z,981.02
2018-04-13T04:46:46.207Z,981.10
2018-04-13T04:47:46.421Z,981.10
2018-04-13T04:48:46.393Z,981.09
2018-04-13T04:49:46.430Z,981.12
2018-04-13T04:50:46.451Z,981.07
2018-04-13T04:51:46.371Z,981.10
2018-04-13T04:52:46.302Z,981.08
2018-04-13T04:53:46.378Z,981.08
2018-04-13T04:54:46.334Z,981.03
2018-04-13T04:55:46.305Z,981.04
2018-04-13T04:56:46.324Z,981.04
2018-04-13T04:57:46.315Z,981.04
2018-04-13T04:58:46.025Z,981.04
2018-04-13T04:59:45.939Z,981.05
2018-04-13T05:00:45.949Z,981.02
2018-04-13T05:01:45.924Z,980.98
2018-04-13T05:02:46.231Z,981.02
2018-04-13T05:03:46.190Z,980.99
2018-04-13T05:04:45.901Z,981.01
2018-04-13T05:05:46.241Z,981.07
2018-04-13T05:06:46.124Z,981.02
2018-04-13T05:07:46.139Z,981.05
2018-04-13T05:08:46.136Z,981.07
2018-04-13T05:09:45.748Z,981.08
2018-04-13T05:10:45.764Z,981.11
2018-04-13T05:11:45.732Z,981.14
2018-04-13T05:12:45.711Z,981.15
2018-04-13T05:15:07.037Z,981.16
2018-04-13T05:16:06.963Z,981.15
2018-04-13T05:17:06.729Z,981.15
2018-04-13T05:18:07.014Z,981.15
2018-04-13T05:19:07.005Z,981.17
2018-04-13T05:20:07.011Z,981.18
2018-04-13T05:21:06.959Z,981.14
2018-04-13T05:22:06.979Z,981.20
2018-04-13T05:23:06.897Z,981.19
2018-04-13T05:24:06.904Z,981.25
2018-04-13T05:25:06.904Z,981.22
2018-04-13T05:26:06.916Z,981.27
2018-04-13T05:27:06.827Z,981.32
2018-04-13T05:28:06.830Z,981.31
2018-04-13T05:29:06.789Z,981.34
2018-04-13T05:30:06.869Z,981.38
2018-04-13T05:31:06.764Z,981.37
2018-04-13T05:32:06.781Z,981.38
2018-04-13T05:33:17.192Z,981.42
2018-04-13T05:35:00.053Z,981.45
2018-04-13T05:36:00.079Z,981.46
2018-04-13T05:37:00.065Z,981.46
2018-04-13T05:38:00.073Z,981.46
2018-04-13T05:39:00.043Z,981.52
2018-04-13T05:39:59.798Z,981.52
2018-04-13T05:41:00.012Z,981.53
2018-04-13T05:42:00.040Z,981.45
2018-04-13T05:43:00.028Z,981.47
2018-04-13T05:43:59.998Z,981.44
2018-04-13T05:44:59.998Z,981.42
2018-04-13T05:46:00.032Z,981.45
2018-04-13T05:47:00.003Z,981.40
2018-04-13T05:47:59.859Z,981.43
2018-04-13T05:48:59.830Z,981.43
2018-04-13T05:49:59.849Z,981.42
2018-04-13T05:50:59.595Z,981.47
2018-04-13T05:52:08.557Z,981.45
2018-04-13T05:54:02.308Z,981.48
2018-04-13T05:54:53.209Z,981.49
2018-04-13T05:55:52.898Z,981.54
2018-04-13T05:56:53.187Z,981.55
2018-04-13T05:57:53.190Z,981.56
2018-04-13T05:58:53.187Z,981.59
2018-04-13T05:59:53.230Z,981.59
2018-04-13T06:00:53.134Z,981.62
2018-04-13T06:01:53.105Z,981.60
2018-04-13T06:02:53.071Z,981.61
2018-04-13T06:03:53.056Z,981.65
2018-04-13T06:05:01.642Z,981.67
2018-04-13T06:06:46.466Z,981.66
2018-04-13T06:07:46.142Z,981.69
2018-04-13T06:10:07.426Z,981.67
2018-04-13T06:11:07.091Z,981.64
2018-04-13T06:13:28.468Z,981.63
2018-04-13T06:14:28.331Z,981.66
2018-04-13T06:16:57.042Z,981.61
2018-04-13T06:17:49.334Z,981.61
2018-04-13T06:18:49.085Z,981.62
2018-04-13T06:19:49.270Z,981.61
2018-04-13T06:20:49.305Z,981.57
2018-04-13T06:21:49.231Z,981.62
2018-04-13T06:22:49.283Z,981.63
2018-04-13T06:23:49.238Z,981.67
2018-04-13T06:24:49.184Z,981.63
2018-04-13T06:25:49.245Z,981.64
2018-04-13T06:26:49.235Z,981.63
2018-04-13T06:27:57.789Z,981.66
2018-04-13T06:29:42.650Z,981.67
2018-04-13T06:30:42.582Z,981.66
2018-04-13T06:31:42.441Z,981.71
2018-04-13T06:32:42.499Z,981.75
2018-04-13T06:33:42.493Z,981.78
2018-04-13T06:34:42.410Z,981.83
2018-04-13T06:35:42.470Z,981.84
2018-04-13T06:36:42.408Z,981.87
2018-04-13T06:37:51.651Z,981.91
2018-04-13T06:39:36.757Z,981.96
2018-04-13T06:40:36.438Z,981.96
2018-04-13T06:41:36.728Z,982.00
2018-04-13T06:42:36.649Z,982.01
2018-04-13T06:43:36.666Z,982.04
2018-04-13T06:44:36.668Z,982.04
2018-04-13T06:45:36.652Z,982.05
2018-04-13T06:46:36.390Z,982.06
2018-04-13T06:47:36.640Z,982.07
2018-04-13T06:48:45.330Z,982.04
2018-04-13T06:50:29.967Z,982.10
2018-04-13T06:51:29.941Z,982.11
2018-04-13T06:52:29.666Z,982.21
2018-04-13T06:53:29.987Z,982.20
2018-04-13T06:54:29.934Z,982.26
2018-04-13T06:55:39.173Z,982.26
2018-04-13T06:57:23.229Z,982.32
2018-04-13T06:58:23.224Z,982.32
2018-04-13T06:59:22.936Z,982.37
2018-04-13T07:00:32.362Z,982.39
2018-04-13T07:02:16.549Z,982.50
2018-04-13T07:03:16.540Z,982.54
2018-04-13T07:04:16.225Z,982.59
2018-04-13T07:05:25.180Z,982.63
2018-04-13T07:07:09.851Z,982.64
2018-04-13T07:08:09.870Z,982.70
2018-04-13T07:09:09.812Z,982.71
2018-04-13T07:10:09.894Z,982.75
2018-04-13T07:11:09.549Z,982.80
2018-04-13T07:12:09.809Z,982.79
2018-04-13T07:13:09.799Z,982.82
2018-04-13T07:14:09.774Z,982.83
2018-04-13T07:15:09.721Z,982.84
2018-04-13T07:16:09.762Z,982.84
2018-04-13T07:17:09.688Z,982.86
2018-04-13T07:18:09.679Z,982.80
2018-04-13T07:19:09.362Z,982.83
2018-04-13T07:20:09.364Z,982.86
2018-04-13T07:21:09.355Z,982.94
2018-04-13T07:22:09.337Z,982.93
2018-04-13T07:23:09.657Z,982.96
2018-04-13T07:24:09.602Z,982.93
2018-04-13T07:25:09.637Z,982.97
2018-04-13T07:26:09.630Z,983.01
2018-04-13T07:27:09.226Z,983.02
2018-04-13T07:28:09.196Z,983.01
2018-04-13T07:29:09.197Z,982.99
2018-04-13T07:30:09.218Z,982.96
2018-04-13T07:31:09.332Z,983.02
2018-04-13T07:32:09.147Z,983.04
2018-04-13T07:33:09.128Z,983.05
2018-04-13T07:34:09.119Z,983.05
2018-04-13T07:35:09.103Z,983.05
2018-04-13T07:36:09.087Z,983.05
2018-04-13T07:37:09.071Z,983.09
2018-04-13T07:38:09.057Z,983.05
2018-04-13T07:39:09.236Z,983.08
2018-04-13T07:40:09.023Z,983.09
2018-04-13T07:41:09.012Z,983.11
2018-04-13T07:42:09.011Z,983.11
2018-04-13T07:43:08.995Z,983.13
2018-04-13T07:44:08.960Z,983.16
2018-04-13T07:45:08.951Z,983.16
2018-04-13T07:46:08.939Z,983.14
2018-04-13T07:47:08.921Z,983.19
2018-04-13T07:48:08.897Z,983.23
2018-04-13T07:49:08.900Z,983.24
2018-04-13T07:50:08.881Z,983.22
2018-04-13T07:51:09.535Z,983.25
2018-04-13T07:52:08.846Z,983.26
2018-04-13T07:53:08.843Z,983.23
2018-04-13T07:54:08.814Z,983.24
2018-04-13T07:55:08.795Z,983.29
2018-04-13T07:56:08.782Z,983.32
2018-04-13T07:57:08.769Z,983.35
2018-04-13T07:58:08.753Z,983.38
2018-04-13T07:59:08.733Z,983.42
2018-04-13T08:00:08.724Z,983.45
2018-04-13T08:01:08.705Z,983.43
2018-04-13T08:02:08.690Z,983.40
2018-04-13T08:03:08.681Z,983.39
2018-04-13T08:04:08.657Z,983.46
2018-04-13T08:05:08.646Z,983.46
2018-04-13T08:06:08.625Z,983.52
2018-04-13T08:07:08.613Z,983.55
2018-04-13T08:08:08.608Z,983.55
2018-04-13T08:09:08.580Z,983.55
2018-04-13T08:10:08.568Z,983.56
2018-04-13T08:11:08.822Z,983.53
2018-04-13T08:12:08.538Z,983.52
2018-04-13T08:13:08.526Z,983.56
2018-04-13T08:14:08.500Z,983.57
2018-04-13T08:15:08.498Z,983.53
2018-04-13T08:16:08.478Z,983.62
2018-04-13T08:17:08.456Z,983.59
2018-04-13T08:18:08.453Z,983.60
2018-04-13T08:19:08.423Z,983.63
2018-04-13T08:20:08.420Z,983.67
2018-04-13T08:21:08.398Z,983.72
2018-04-13T08:22:08.385Z,983.74
2018-04-13T08:23:08.361Z,983.79
2018-04-13T08:24:08.355Z,983.78
2018-04-13T08:25:08.339Z,983.82
2018-04-13T08:26:08.313Z,983.84
2018-04-13T08:27:08.366Z,983.82
2018-04-13T08:28:08.287Z,983.79
2018-04-13T08:29:08.281Z,983.78
2018-04-13T08:30:08.260Z,983.77
2018-04-13T08:31:08.287Z,983.79
2018-04-13T08:32:08.232Z,983.75
2018-04-13T08:33:08.210Z,983.79
2018-04-13T08:34:08.195Z,983.84
2018-04-13T08:35:08.175Z,983.81
2018-04-13T08:36:08.174Z,983.84
2018-04-13T08:37:08.151Z,983.84
2018-04-13T08:38:08.131Z,983.88
2018-04-13T08:39:08.122Z,983.91
2018-04-13T08:40:08.102Z,983.92
2018-04-13T08:41:08.091Z,983.88
2018-04-13T08:42:08.080Z,983.90
2018-04-13T08:43:08.057Z,983.93
2018-04-13T08:44:08.044Z,983.92
2018-04-13T08:45:08.024Z,983.96
2018-04-13T08:46:08.014Z,983.98
2018-04-13T08:47:08.024Z,983.98
2018-04-13T08:48:07.982Z,983.92
2018-04-13T08:49:08.177Z,983.93
2018-04-13T08:50:07.947Z,983.94
2018-04-13T08:51:07.935Z,984.02
2018-04-13T08:52:07.921Z,984.06
2018-04-13T08:53:07.901Z,984.05
2018-04-13T08:54:07.935Z,984.03
2018-04-13T08:55:07.888Z,984.06
2018-04-13T08:56:07.853Z,984.05
2018-04-13T08:57:07.847Z,984.07
2018-04-13T08:58:07.822Z,984.12
2018-04-13T08:59:07.805Z,984.17
2018-04-13T09:00:07.793Z,984.21
2018-04-13T09:01:07.777Z,984.20
2018-04-13T09:02:07.761Z,984.23
2018-04-13T09:03:07.749Z,984.26
2018-04-13T09:04:07.749Z,984.35
2018-04-13T09:05:07.737Z,984.41
2018-04-13T09:06:07.705Z,984.35
2018-04-13T09:07:07.687Z,984.31
2018-04-13T09:08:07.672Z,984.36
2018-04-13T09:09:07.659Z,984.32
2018-04-13T09:10:07.641Z,984.40
2018-04-13T09:11:07.627Z,984.35
2018-04-13T09:12:07.605Z,984.45
2018-04-13T09:13:07.598Z,984.41
2018-04-13T09:14:07.605Z,984.41
2018-04-13T09:15:07.570Z,984.40
2018-04-13T09:16:07.545Z,984.44
2018-04-13T09:17:07.541Z,984.46
2018-04-13T09:18:07.516Z,984.42
2018-04-13T09:19:07.501Z,984.39
2018-04-13T09:20:07.481Z,984.45
2018-04-13T09:21:07.465Z,984.45
2018-04-13T09:22:07.455Z,984.49
2018-04-13T09:23:07.443Z,984.54
2018-04-13T09:24:07.423Z,984.58
2018-04-13T09:25:07.408Z,984.56
2018-04-13T09:26:07.392Z,984.57
2018-04-13T09:27:07.387Z,984.61
2018-04-13T09:28:07.376Z,984.60
2018-04-13T09:29:07.382Z,984.64
2018-04-13T09:30:07.332Z,984.64
2018-04-13T09:31:07.338Z,984.68
2018-04-13T09:32:07.322Z,984.74
2018-04-13T09:33:07.287Z,984.73
2018-04-13T09:34:07.296Z,984.77
2018-04-13T09:35:07.283Z,984.74
2018-04-13T09:36:07.235Z,984.74
2018-04-13T09:37:07.249Z,984.75
2018-04-13T09:38:07.212Z,984.71
2018-04-13T09:39:07.213Z,984.72
2018-04-13T09:40:07.185Z,984.74
2018-04-13T09:41:07.186Z,984.75
2018-04-13T09:42:07.145Z,984.76
2018-04-13T09:43:07.155Z,984.77
2018-04-13T09:44:07.122Z,984.77
2018-04-13T09:45:07.106Z,984.80
2018-04-13T09:46:07.134Z,984.87
2018-04-13T09:47:07.068Z,984.85
2018-04-13T09:48:07.080Z,984.93
2018-04-13T09:49:07.049Z,984.94
2018-04-13T09:50:07.045Z,984.98
2018-04-13T09:51:07.000Z,984.98
2018-04-13T09:52:06.991Z,984.98
2018-04-13T09:53:06.988Z,985.06
2018-04-13T09:54:06.964Z,985.04
2018-04-13T09:55:06.948Z,985.07
2018-04-13T09:56:06.954Z,985.10
2018-04-13T09:57:06.945Z,985.17
2018-04-13T09:58:06.902Z,985.15
2018-04-13T09:59:06.877Z,985.14
2018-04-13T10:00:06.873Z,985.16
2018-04-13T10:01:06.877Z,985.18
2018-04-13T10:02:06.842Z,985.17
2018-04-13T10:03:06.823Z,985.13
2018-04-13T10:04:06.801Z,985.13
2018-04-13T10:05:06.794Z,985.15
2018-04-13T10:06:06.784Z,985.17
2018-04-13T10:07:06.765Z,985.16
2018-04-13T10:08:06.804Z,985.17
2018-04-13T10:09:06.756Z,985.18
2018-04-13T10:10:06.749Z,985.20
2018-04-13T10:11:06.697Z,985.18
2018-04-13T10:12:06.701Z,985.22
2018-04-13T10:13:06.695Z,985.25
2018-04-13T10:14:06.672Z,985.26
2018-04-13T10:15:06.666Z,985.30
2018-04-13T10:16:06.627Z,985.27
2018-04-13T10:17:06.611Z,985.26
2018-04-13T10:18:06.593Z,985.29
2018-04-13T10:19:06.778Z,985.30
2018-04-13T10:20:06.560Z,985.31
2018-04-13T10:21:06.576Z,985.28
2018-04-13T10:22:06.540Z,985.35
2018-04-13T10:23:06.511Z,985.36
2018-04-13T10:24:06.492Z,985.38
2018-04-13T10:25:06.508Z,985.40
2018-04-13T10:26:06.467Z,985.43
2018-04-13T10:27:06.480Z,985.47
2018-04-13T10:28:06.443Z,985.44
2018-04-13T10:29:06.419Z,985.50
2018-04-13T10:30:06.400Z,985.54
2018-04-13T10:31:06.393Z,985.56
2018-04-13T10:32:06.361Z,985.63
2018-04-13T10:33:06.473Z,985.72
2018-04-13T10:34:06.339Z,985.75
2018-04-13T10:35:06.336Z,985.76
2018-04-13T10:36:06.338Z,985.74
2018-04-13T10:37:06.281Z,985.69
2018-04-13T10:38:06.300Z,985.72
2018-04-13T10:39:06.284Z,985.76
2018-04-13T10:40:06.274Z,985.77
2018-04-13T10:41:06.242Z,985.76
2018-04-13T10:42:06.239Z,985.79
2018-04-13T10:43:06.203Z,985.75
2018-04-13T10:44:06.192Z,985.80
2018-04-13T10:45:06.177Z,985.82
2018-04-13T10:46:06.152Z,985.84
2018-04-13T10:47:06.133Z,985.85
2018-04-13T10:48:06.142Z,985.88
2018-04-13T10:49:06.133Z,985.94
2018-04-13T10:50:06.107Z,986.01
2018-04-13T10:51:06.114Z,986.05
2018-04-13T10:52:06.107Z,986.10
2018-04-13T10:53:06.050Z,986.09
2018-04-13T10:54:06.023Z,986.15
2018-04-13T10:55:06.015Z,986.18
2018-04-13T10:56:05.986Z,986.14
2018-04-13T10:57:06.021Z,986.19
2018-04-13T10:58:05.955Z,986.24
2018-04-13T10:59:05.952Z,986.22
2018-04-13T11:00:05.956Z,986.26
2018-04-13T11:01:05.909Z,986.28
2018-04-13T11:02:05.898Z,986.27
2018-04-13T11:03:05.872Z,986.24
2018-04-13T11:04:05.857Z,986.27
2018-04-13T11:05:05.851Z,986.28
2018-04-13T11:06:05.818Z,986.29
2018-04-13T11:07:06.013Z,986.33
2018-04-13T11:08:05.866Z,986.31
2018-04-13T11:09:05.910Z,986.35
2018-04-13T11:10:05.811Z,986.40
2018-04-13T11:11:05.763Z,986.37
2018-04-13T11:12:05.754Z,986.40
2018-04-13T11:13:05.753Z,986.47
2018-04-13T11:14:05.852Z,986.58
2018-04-13T11:15:05.741Z,986.52
2018-04-13T11:16:05.757Z,986.52
2018-04-13T11:17:05.688Z,986.52
2018-04-13T11:18:06.044Z,986.57
2018-04-13T11:19:05.610Z,986.58
2018-04-13T11:20:05.598Z,986.59
2018-04-13T11:21:05.773Z,986.57
2018-04-13T11:22:05.590Z,986.60
2018-04-13T11:23:05.540Z,986.63
2018-04-13T11:24:05.591Z,986.66
2018-04-13T11:25:05.512Z,986.72
2018-04-13T11:26:05.582Z,986.73
2018-04-13T11:27:05.481Z,986.74
2018-04-13T11:28:05.470Z,986.76
2018-04-13T11:29:05.517Z,986.76
2018-04-13T11:30:05.453Z,986.78
2018-04-13T11:31:05.559Z,986.82
2018-04-13T11:32:05.402Z,986.86
2018-04-13T11:33:05.398Z,986.90
2018-04-13T11:34:05.370Z,986.97
2018-04-13T11:35:05.454Z,986.97
2018-04-13T11:36:05.341Z,987.02
2018-04-13T11:37:05.359Z,987.06
2018-04-13T11:38:05.355Z,987.09
2018-04-13T11:39:05.476Z,987.15
2018-04-13T11:40:05.361Z,987.15
2018-04-13T11:41:05.301Z,987.20
2018-04-13T11:42:05.236Z,987.22
2018-04-13T11:43:05.411Z,987.26
2018-04-13T11:44:05.303Z,987.31
2018-04-13T11:45:05.260Z,987.32
2018-04-13T11:46:05.316Z,987.31
2018-04-13T11:47:05.311Z,987.31
2018-04-13T11:48:05.181Z,987.36
2018-04-13T11:49:05.256Z,987.36
2018-04-13T11:50:05.122Z,987.44
2018-04-13T11:51:05.127Z,987.40
2018-04-13T11:52:05.090Z,987.42
2018-04-13T11:53:05.048Z,987.45
2018-04-13T11:54:05.070Z,987.43
2018-04-13T11:55:05.065Z,987.45
2018-04-13T11:56:05.038Z,987.49
2018-04-13T11:57:04.983Z,987.47
2018-04-13T11:58:04.986Z,987.48
2018-04-13T11:59:04.978Z,987.52
2018-04-13T12:00:04.931Z,987.54
2018-04-13T12:01:04.928Z,987.59
2018-04-13T12:02:04.911Z,987.60
2018-04-13T12:03:04.907Z,987.62
2018-04-13T12:04:04.863Z,987.65
2018-04-13T12:05:04.957Z,987.69
2018-04-13T12:06:04.840Z,987.69
2018-04-13T12:07:04.850Z,987.74
2018-04-13T12:08:05.083Z,987.73
2018-04-13T12:09:04.925Z,987.76
2018-04-13T12:10:04.834Z,987.76
2018-04-13T12:11:04.812Z,987.82
2018-04-13T12:12:04.822Z,987.77
2018-04-13T12:13:04.741Z,987.78
2018-04-13T12:14:04.757Z,987.80
2018-04-13T12:15:04.683Z,987.82
2018-04-13T12:16:04.707Z,987.83
2018-04-13T12:17:04.867Z,987.85
2018-04-13T12:18:04.745Z,987.94
2018-04-13T12:19:04.789Z,987.90
2018-04-13T12:20:04.617Z,987.89
2018-04-13T12:21:04.664Z,987.96
2018-04-13T12:22:04.649Z,987.98
2018-04-13T12:23:04.579Z,988.00
2018-04-13T12:24:04.673Z,988.01
2018-04-13T12:25:04.568Z,988.06
2018-04-13T12:26:04.591Z,988.08
2018-04-13T12:27:04.669Z,988.12
2018-04-13T12:28:05.108Z,988.09
2018-04-13T12:29:04.481Z,988.11
2018-04-13T12:30:04.434Z,988.20
2018-04-13T12:31:04.465Z,988.19
2018-04-13T12:32:04.648Z,988.20
2018-04-13T12:33:04.487Z,988.20
2018-04-13T12:34:04.362Z,988.24
2018-04-13T12:35:04.558Z,988.24
2018-04-13T12:36:04.330Z,988.22
2018-04-13T12:37:04.332Z,988.23
2018-04-13T12:38:04.317Z,988.25
2018-04-13T12:39:04.615Z,988.29
2018-04-13T12:40:15.745Z,988.26
2018-04-13T12:41:05.396Z,988.25
2018-04-13T12:42:04.487Z,988.21
2018-04-13T12:44:28.494Z,988.14
2018-04-13T12:45:26.364Z,988.11
2018-04-13T12:46:26.262Z,988.09
2018-04-13T12:47:26.253Z,988.15